createdAt,value
2018-09-14T00:00:34.920Z,6.70
2018-09-14T00:03:03.536Z,7.30
2018-09-14T00:05:31.820Z,6.97
2018-09-14T00:08:00.050Z,7.10
2018-09-14T00:10:28.234Z,8.10
2018-09-14T00:12:56.338Z,8.13
2018-09-14T00:15:24.480Z,8.20
2018-09-14T00:17:52.648Z,8.83
2018-09-14T00:20:20.817Z,8.03
2018-09-14T00:22:48.968Z,8.03
2018-09-14T00:25:17.092Z,8.53
2018-09-14T00:27:45.935Z,8.27
2018-09-14T00:30:14.087Z,8.70
2018-09-14T00:32:42.355Z,8.67
2018-09-14T00:35:10.530Z,9.07
2018-09-14T00:37:38.788Z,8.77
2018-09-14T00:40:06.970Z,9.40
2018-09-14T00:42:35.118Z,9.70
2018-09-14T00:45:03.302Z,10.00
2018-09-14T00:47:31.468Z,9.37
2018-09-14T00:49:59.594Z,10.00
2018-09-14T00:52:27.787Z,9.03
2018-09-14T00:54:56.081Z,8.80
2018-09-14T00:57:24.216Z,9.07
2018-09-14T00:59:52.368Z,9.47
2018-09-14T01:02:20.521Z,9.73
2018-09-14T01:04:48.618Z,10.40
2018-09-14T01:07:16.709Z,10.53
2018-09-14T01:09:44.795Z,10.13
2018-09-14T01:12:12.907Z,9.80
2018-09-14T01:14:41.093Z,10.00
2018-09-14T01:17:09.350Z,9.60
2018-09-14T01:19:37.446Z,9.03
2018-09-14T01:22:05.598Z,9.50
2018-09-14T01:24:33.719Z,10.87
2018-09-14T01:27:01.902Z,9.43
2018-09-14T01:29:30.052Z,9.10
2018-09-14T01:31:58.190Z,10.20
2018-09-14T01:34:26.343Z,10.23
2018-09-14T01:36:54.496Z,10.93
2018-09-14T01:39:22.745Z,11.83
2018-09-14T01:41:50.932Z,11.40
2018-09-14T01:44:19.099Z,11.50
2018-09-14T01:46:47.291Z,10.87
2018-09-14T01:49:15.493Z,12.13
2018-09-14T01:51:43.659Z,11.13
2018-09-14T01:54:11.803Z,11.80
2018-09-14T01:56:39.982Z,11.20
2018-09-14T01:59:08.139Z,11.83
2018-09-14T02:01:36.248Z,11.43
2018-09-14T02:04:04.407Z,11.50
2018-09-14T02:06:32.578Z,11.30
2018-09-14T02:09:00.728Z,11.80
2018-09-14T02:11:28.929Z,11.37
2018-09-14T02:13:57.048Z,12.73
2018-09-14T02:16:25.205Z,11.83
2018-09-14T02:18:53.377Z,11.20
2018-09-14T02:21:21.555Z,12.00
2018-09-14T02:23:49.705Z,11.87
2018-09-14T02:26:17.906Z,12.13
2018-09-14T02:28:46.162Z,12.43
2018-09-14T02:31:14.295Z,12.77
2018-09-14T02:33:42.527Z,12.83
2018-09-14T02:36:10.707Z,11.67
2018-09-14T02:38:38.884Z,11.93
2018-09-14T02:41:07.087Z,13.20
2018-09-14T02:43:35.251Z,12.27
2018-09-14T02:46:03.416Z,13.93
2018-09-14T02:48:31.685Z,11.90
2018-09-14T02:50:59.796Z,12.00
2018-09-14T02:53:28.016Z,11.80
2018-09-14T02:55:56.166Z,11.93
2018-09-14T02:58:24.336Z,11.70
2018-09-14T03:00:52.492Z,12.43
2018-09-14T03:03:20.728Z,12.00
2018-09-14T03:05:48.914Z,13.13
2018-09-14T03:08:17.092Z,12.03
2018-09-14T03:10:45.241Z,12.23
2018-09-14T03:13:13.389Z,12.13
2018-09-14T03:15:41.547Z,11.10
2018-09-14T03:18:09.681Z,10.73
2018-09-14T03:20:37.787Z,13.03
2018-09-14T03:23:05.983Z,12.20
2018-09-14T03:25:34.144Z,11.53
2018-09-14T03:28:02.332Z,11.10
2018-09-14T03:30:30.488Z,12.70
2018-09-14T03:32:58.658Z,12.93
2018-09-14T03:35:26.798Z,13.07
2018-09-14T03:37:54.953Z,13.03
2018-09-14T03:40:23.178Z,12.73
2018-09-14T03:42:51.332Z,13.03
2018-09-14T03:45:19.572Z,13.33
2018-09-14T03:47:47.778Z,13.17
2018-09-14T03:50:15.875Z,13.00
2018-09-14T03:52:44.039Z,12.17
2018-09-14T03:55:12.588Z,13.23
2018-09-14T03:57:40.847Z,13.07
2018-09-14T04:00:09.045Z,12.67
2018-09-14T04:02:37.267Z,12.50
2018-09-14T04:05:05.510Z,13.97
2018-09-14T04:07:33.761Z,12.20
2018-09-14T04:10:01.915Z,14.10
2018-09-14T04:12:30.392Z,14.30
2018-09-14T04:14:58.709Z,12.70
2018-09-14T04:17:26.878Z,13.67
2018-09-14T04:19:55.025Z,12.77
2018-09-14T04:22:23.253Z,12.33
2018-09-14T04:24:51.399Z,14.10
2018-09-14T04:27:19.592Z,14.30
2018-09-14T04:29:47.710Z,12.83
2018-09-14T04:32:15.909Z,13.80
2018-09-14T04:34:44.151Z,14.70
2018-09-14T04:37:12.330Z,13.23
2018-09-14T04:39:40.532Z,13.30
2018-09-14T04:42:08.733Z,14.77
2018-09-14T04:44:36.962Z,13.67
2018-09-14T04:47:05.114Z,13.93
2018-09-14T04:49:33.312Z,13.77
2018-09-14T04:52:01.509Z,14.47
2018-09-14T04:54:29.742Z,15.30
2018-09-14T04:56:57.863Z,13.23
2018-09-14T04:59:26.111Z,14.90
2018-09-14T05:01:54.419Z,14.13
2018-09-14T05:04:22.644Z,14.97
2018-09-14T05:06:50.900Z,14.47
2018-09-14T05:09:19.115Z,15.37
2018-09-14T05:11:47.359Z,14.77
2018-09-14T05:14:15.614Z,14.53
2018-09-14T05:16:43.792Z,13.93
2018-09-14T05:19:12.137Z,13.73
2018-09-14T05:21:40.573Z,14.50
2018-09-14T05:24:08.911Z,14.27
2018-09-14T05:26:37.042Z,13.70
2018-09-14T05:29:05.302Z,14.80
2018-09-14T05:31:33.798Z,14.17
2018-09-14T05:34:02.062Z,13.87
2018-09-14T05:36:30.428Z,13.63
2018-09-14T05:38:58.774Z,14.40
2018-09-14T05:41:27.058Z,13.67
2018-09-14T05:43:55.460Z,13.77
2018-09-14T05:46:23.830Z,13.23
2018-09-14T05:48:52.148Z,13.03
2018-09-14T05:51:20.325Z,12.93
2018-09-14T05:53:48.625Z,13.40
2018-09-14T05:56:16.949Z,12.20
2018-09-14T05:58:45.183Z,13.97
2018-09-14T06:01:13.446Z,13.03
2018-09-14T06:03:41.663Z,13.63
2018-09-14T06:06:09.873Z,11.47
2018-09-14T06:08:38.211Z,12.90
2018-09-14T06:11:06.596Z,13.07
2018-09-14T06:13:34.802Z,12.30
2018-09-14T06:16:03.062Z,12.27
2018-09-14T06:18:31.348Z,12.67
2018-09-14T06:20:59.616Z,12.63
2018-09-14T06:23:27.805Z,12.23
2018-09-14T06:25:56.244Z,12.77
2018-09-14T06:28:24.531Z,12.87
2018-09-14T06:30:52.762Z,12.87
2018-09-14T06:33:22.827Z,13.40
2018-09-14T06:35:51.088Z,12.57
2018-09-14T06:38:19.310Z,12.90
2018-09-14T06:40:47.484Z,13.60
2018-09-14T06:43:15.648Z,13.30
2018-09-14T06:45:43.886Z,11.70
2018-09-14T06:48:12.093Z,13.80
2018-09-14T06:50:40.367Z,13.37
2018-09-14T06:53:08.759Z,12.93
2018-09-14T06:55:37.251Z,13.20
2018-09-14T06:58:05.914Z,14.10
2018-09-14T07:00:34.515Z,12.43
2018-09-14T07:03:03.148Z,12.97
2018-09-14T07:05:31.832Z,11.97
2018-09-14T07:08:00.412Z,12.60
2018-09-14T07:10:29.010Z,11.20
2018-09-14T07:12:57.718Z,11.63
2018-09-14T07:15:26.488Z,10.63
2018-09-14T07:17:55.123Z,11.20
2018-09-14T07:20:23.675Z,11.03
2018-09-14T07:22:52.078Z,10.50
2018-09-14T07:25:20.746Z,10.53
2018-09-14T07:27:50.418Z,11.70
2018-09-14T07:30:18.886Z,11.07
2018-09-14T07:32:47.162Z,10.80
2018-09-14T07:35:15.400Z,10.47
2018-09-14T07:37:43.584Z,10.90
2018-09-14T07:40:11.815Z,11.17
2018-09-14T07:42:40.035Z,11.63
2018-09-14T07:45:08.222Z,12.83
2018-09-14T07:47:36.812Z,12.03
2018-09-14T07:50:05.719Z,13.33
2018-09-14T07:52:33.964Z,12.43
2018-09-14T07:55:02.700Z,12.17
2018-09-14T07:57:30.952Z,12.60
2018-09-14T07:59:59.143Z,12.40
2018-09-14T08:02:27.243Z,13.03
2018-09-14T08:04:55.529Z,11.60
2018-09-14T08:07:23.751Z,13.00
2018-09-14T08:09:52.410Z,12.73
2018-09-14T08:12:20.744Z,13.77
2018-09-14T08:14:49.006Z,12.93
2018-09-14T08:17:17.266Z,14.17
2018-09-14T08:19:45.482Z,14.10
2018-09-14T08:22:13.852Z,13.60
2018-09-14T08:24:42.194Z,13.43
2018-09-14T08:27:10.551Z,13.90
2018-09-14T08:29:38.818Z,13.03
2018-09-14T08:32:07.180Z,14.77
2018-09-14T08:34:36.784Z,15.53
2018-09-14T08:37:05.048Z,15.10
2018-09-14T08:39:33.258Z,15.20
2018-09-14T08:42:01.508Z,14.43
2018-09-14T08:44:29.729Z,16.10
2018-09-14T08:46:57.943Z,15.80
2018-09-14T08:49:26.274Z,16.60
2018-09-14T08:51:54.600Z,15.93
2018-09-14T08:54:22.782Z,16.37
2018-09-14T08:56:50.967Z,16.67
2018-09-14T08:59:19.095Z,15.43
2018-09-14T09:01:47.359Z,14.30
2018-09-14T09:04:15.541Z,14.83
2018-09-14T09:06:43.803Z,15.50
2018-09-14T09:09:13.106Z,15.93
2018-09-14T09:11:41.879Z,16.33
2018-09-14T09:14:10.501Z,16.00
2018-09-14T09:16:39.848Z,14.47
2018-09-14T09:19:08.792Z,16.10
2018-09-14T09:21:37.516Z,15.00
2018-09-14T09:24:06.109Z,14.37
2018-09-14T09:26:34.830Z,14.37
2018-09-14T09:29:03.129Z,14.30
2018-09-14T09:31:31.308Z,14.57
2018-09-14T09:33:59.954Z,14.43
2018-09-14T09:36:28.346Z,14.03
2018-09-14T09:38:56.540Z,13.87
2018-09-14T09:41:24.992Z,13.53
2018-09-14T09:43:53.289Z,14.50
2018-09-14T09:46:21.487Z,15.80
2018-09-14T09:48:50.016Z,15.43
2018-09-14T09:51:18.484Z,14.63
2018-09-14T09:53:46.713Z,14.40
2018-09-14T09:56:14.907Z,15.43
2018-09-14T09:58:43.253Z,13.63
2018-09-14T10:01:16.800Z,12.77
2018-09-14T10:03:50.622Z,12.43
2018-09-14T10:06:24.370Z,13.47
2018-09-14T10:08:52.975Z,13.50
2018-09-14T10:11:21.255Z,12.30
2018-09-14T10:13:49.487Z,11.67
2018-09-14T10:16:17.798Z,12.30
2018-09-14T10:18:46.049Z,12.53
2018-09-14T10:21:14.565Z,13.10
2018-09-14T10:23:42.979Z,12.70
2018-09-14T10:26:11.386Z,12.17
2018-09-14T10:28:39.709Z,12.87
2018-09-14T10:31:08.342Z,14.27
2018-09-14T10:33:37.053Z,13.30
2018-09-14T10:36:05.370Z,12.67
2018-09-14T10:38:33.802Z,13.87
2018-09-14T10:41:02.311Z,12.97
2018-09-14T10:43:31.289Z,12.87
2018-09-14T10:46:00.355Z,12.33
2018-09-14T10:48:28.581Z,12.40
2018-09-14T10:50:56.924Z,12.40
2018-09-14T10:53:25.148Z,12.20
2018-09-14T10:55:53.346Z,13.13
2018-09-14T10:58:22.340Z,12.37
2018-09-14T11:00:50.545Z,11.43
2018-09-14T11:03:18.952Z,10.53
2018-09-14T11:05:47.120Z,10.07
2018-09-14T11:08:15.313Z,10.97
2018-09-14T11:10:43.458Z,10.43
2018-09-14T11:13:11.695Z,11.03
2018-09-14T11:15:39.828Z,11.43
2018-09-14T11:18:08.032Z,11.17
2018-09-14T11:20:36.295Z,11.00
2018-09-14T11:23:04.414Z,11.13
2018-09-14T11:25:32.796Z,11.37
2018-09-14T11:28:01.010Z,11.23
2018-09-14T11:30:29.427Z,12.47
2018-09-14T11:32:57.649Z,12.87
2018-09-14T11:35:25.819Z,14.47
2018-09-14T11:37:54.168Z,14.27
2018-09-14T11:40:23.189Z,13.17
2018-09-14T11:42:51.347Z,13.33
2018-09-14T11:45:20.127Z,13.27
2018-09-14T11:47:48.262Z,14.00
2018-09-14T11:50:16.416Z,12.63
2018-09-14T11:52:44.677Z,13.00
2018-09-14T11:55:12.823Z,11.97
2018-09-14T11:57:41.022Z,12.23
2018-09-14T12:00:09.229Z,12.23
2018-09-14T12:02:38.810Z,11.90
2018-09-14T12:05:07.192Z,11.00
2018-09-14T12:07:37.721Z,10.50
2018-09-14T12:10:06.479Z,9.80
2018-09-14T12:12:34.754Z,10.37
2018-09-14T12:15:02.979Z,11.03
2018-09-14T12:17:31.114Z,11.20
2018-09-14T12:19:59.294Z,9.90
2018-09-14T12:22:27.403Z,9.43
2018-09-14T12:24:55.613Z,9.20
2018-09-14T12:27:23.890Z,9.13
2018-09-14T12:29:52.057Z,9.73
2018-09-14T12:32:20.199Z,10.63
2018-09-14T12:34:48.374Z,10.23
2018-09-14T12:37:16.591Z,8.43
2018-09-14T12:39:44.848Z,8.63
2018-09-14T12:42:13.043Z,10.43
2018-09-14T12:44:41.253Z,10.27
2018-09-14T12:47:09.439Z,10.70
2018-09-14T12:49:37.696Z,10.10
2018-09-14T12:52:05.880Z,10.63
2018-09-14T12:54:34.059Z,11.67
2018-09-14T12:57:02.386Z,11.10
2018-09-14T12:59:30.715Z,12.33
2018-09-14T13:01:58.920Z,11.27
2018-09-14T13:04:27.190Z,10.50
2018-09-14T13:06:55.310Z,10.27
2018-09-14T13:09:23.416Z,9.73
2018-09-14T13:11:51.598Z,8.97
2018-09-14T13:14:21.139Z,10.10
2018-09-14T13:16:49.640Z,10.50
2018-09-14T13:19:17.812Z,10.63
2018-09-14T13:21:45.974Z,8.77
2018-09-14T13:24:14.105Z,10.23
2018-09-14T13:26:42.266Z,10.67
2018-09-14T13:29:10.488Z,9.70
2018-09-14T13:31:38.621Z,9.27
2018-09-14T13:34:06.818Z,9.67
2018-09-14T13:36:35.054Z,9.37
2018-09-14T13:39:03.884Z,8.93
2018-09-14T13:41:32.089Z,8.77
2018-09-14T13:44:00.346Z,9.93
2018-09-14T13:46:28.558Z,11.50
2018-09-14T13:48:56.785Z,11.10
2018-09-14T13:51:24.950Z,10.70
2018-09-14T13:53:53.065Z,9.87
2018-09-14T13:56:21.255Z,10.30
2018-09-14T13:58:49.477Z,10.27
2018-09-14T14:01:17.589Z,10.03
2018-09-14T14:03:45.754Z,9.43
2018-09-14T14:06:13.983Z,9.23
2018-09-14T14:08:42.159Z,8.83
2018-09-14T14:11:11.330Z,9.80
2018-09-14T14:13:39.566Z,9.77
2018-09-14T14:16:07.836Z,10.53
2018-09-14T14:18:36.134Z,11.30
2018-09-14T14:21:04.475Z,10.10
2018-09-14T14:23:32.767Z,9.83
2018-09-14T14:26:01.067Z,10.17
2018-09-14T14:28:29.282Z,10.93
2018-09-14T14:30:57.519Z,10.93
2018-09-14T14:33:26.151Z,10.30
2018-09-14T14:35:54.347Z,8.97
2018-09-14T14:38:22.533Z,9.00
2018-09-14T14:40:50.801Z,10.50
2018-09-14T14:43:19.138Z,10.73
2018-09-14T14:45:47.688Z,9.40
2018-09-14T14:48:16.014Z,9.20
2018-09-14T14:50:46.002Z,9.43
2018-09-14T14:53:14.323Z,9.37
2018-09-14T14:55:42.685Z,8.87
2018-09-14T14:58:11.077Z,8.47
2018-09-14T15:00:39.536Z,8.07
2018-09-14T15:03:12.015Z,9.13
2018-09-14T15:05:40.321Z,8.63
2018-09-14T15:08:08.896Z,8.40
2018-09-14T15:10:37.202Z,7.40
2018-09-14T15:13:06.017Z,8.40
2018-09-14T15:15:34.829Z,8.07
2018-09-14T15:18:03.255Z,8.30
2018-09-14T15:20:31.857Z,8.43
2018-09-14T15:23:00.407Z,9.43
2018-09-14T15:25:30.016Z,9.10
2018-09-14T15:27:58.949Z,9.47
2018-09-14T15:30:28.027Z,8.43
2018-09-14T15:32:56.300Z,8.67
2018-09-14T15:35:24.507Z,8.40
2018-09-14T15:37:52.789Z,9.63
2018-09-14T15:40:21.121Z,8.93
2018-09-14T15:42:49.940Z,8.07
2018-09-14T15:45:18.173Z,7.40
2018-09-14T15:47:46.426Z,8.17
2018-09-14T15:50:14.687Z,7.57
2018-09-14T15:52:42.828Z,7.60
2018-09-14T15:55:11.426Z,8.30
2018-09-14T15:57:39.720Z,8.40
2018-09-14T16:00:08.135Z,8.23
2018-09-14T16:02:36.394Z,8.67
2018-09-14T16:05:04.700Z,8.50
2018-09-14T16:07:32.913Z,8.57
2018-09-14T16:10:01.232Z,8.47
2018-09-14T16:12:29.489Z,8.40
2018-09-14T16:14:57.770Z,8.53
2018-09-14T16:17:25.960Z,8.13
2018-09-14T16:19:54.494Z,8.50
2018-09-14T16:22:22.735Z,7.87
2018-09-14T16:24:51.038Z,9.80
2018-09-14T16:27:19.231Z,9.67
2018-09-14T16:29:47.488Z,9.20
2018-09-14T16:32:15.801Z,9.27
2018-09-14T16:34:46.339Z,8.90
2018-09-14T16:37:14.528Z,8.40
2018-09-14T16:39:42.735Z,8.67
2018-09-14T16:42:11.061Z,9.70
2018-09-14T16:44:39.851Z,8.80
2018-09-14T16:47:08.523Z,10.00
2018-09-14T16:49:37.142Z,9.10
2018-09-14T16:52:05.345Z,9.23
2018-09-14T16:54:35.015Z,9.50
2018-09-14T16:57:03.338Z,9.80
2018-09-14T16:59:31.682Z,9.43
2018-09-14T17:02:00.124Z,9.77
2018-09-14T17:04:28.408Z,9.20
2018-09-14T17:06:56.759Z,9.77
2018-09-14T17:09:25.113Z,9.50
2018-09-14T17:11:54.316Z,10.20
2018-09-14T17:14:22.758Z,9.57
2018-09-14T17:16:50.946Z,9.37
2018-09-14T17:19:19.203Z,9.47
2018-09-14T17:21:47.334Z,9.33
2018-09-14T17:24:15.583Z,9.33
2018-09-14T17:26:43.943Z,9.57
2018-09-14T17:29:12.278Z,10.03
2018-09-14T17:31:40.598Z,8.97
2018-09-14T17:34:08.846Z,8.80
2018-09-14T17:36:37.022Z,10.00
2018-09-14T17:39:06.488Z,9.30
2018-09-14T17:41:35.124Z,9.87
2018-09-14T17:44:03.334Z,8.70
2018-09-14T17:46:31.609Z,9.57
2018-09-14T17:48:59.806Z,9.37
2018-09-14T17:51:28.060Z,9.67
2018-09-14T17:53:56.444Z,10.23
2018-09-14T17:56:24.643Z,9.50
2018-09-14T17:58:53.008Z,9.50
2018-09-14T18:01:21.200Z,9.70
2018-09-14T18:03:49.439Z,10.33
2018-09-14T18:06:18.088Z,8.93
2018-09-14T18:08:46.437Z,9.80
2018-09-14T18:11:14.771Z,9.73
2018-09-14T18:13:42.985Z,9.37
2018-09-14T18:16:11.136Z,10.33
2018-09-14T18:18:39.338Z,9.10
2018-09-14T18:21:07.675Z,9.40
2018-09-14T18:23:35.853Z,10.20
2018-09-14T18:26:04.107Z,9.90
2018-09-14T18:28:32.334Z,9.50
2018-09-14T18:31:00.683Z,9.07
2018-09-14T18:33:28.937Z,10.23
2018-09-14T18:35:57.267Z,10.30
2018-09-14T18:38:25.767Z,10.30
2018-09-14T18:40:54.181Z,10.20
2018-09-14T18:43:22.713Z,10.63
2018-09-14T18:45:51.258Z,11.97
2018-09-14T18:48:19.928Z,10.93
2018-09-14T18:50:48.507Z,10.70
2018-09-14T18:53:17.132Z,10.87
2018-09-14T18:55:45.626Z,10.70
2018-09-14T18:58:13.977Z,8.67
2018-09-14T19:00:42.206Z,9.83
2018-09-14T19:03:10.689Z,9.97
2018-09-14T19:05:39.378Z,10.10
2018-09-14T19:08:07.784Z,11.70
2018-09-14T19:10:36.208Z,11.10
2018-09-14T19:13:05.348Z,10.97
2018-09-14T19:15:34.229Z,11.40
2018-09-14T19:18:03.258Z,11.60
2018-09-14T19:20:31.725Z,10.50
2018-09-14T19:23:00.040Z,8.40
2018-09-14T19:25:28.615Z,8.10
2018-09-14T19:27:57.312Z,7.70
2018-09-14T19:30:25.702Z,7.90
2018-09-14T19:32:54.748Z,7.67
2018-09-14T19:35:23.948Z,7.70
2018-09-14T19:37:52.136Z,8.50
2018-09-14T19:40:20.453Z,10.10
2018-09-14T19:42:48.840Z,9.60
2018-09-14T19:45:17.338Z,9.97
2018-09-14T19:47:45.622Z,8.93
2018-09-14T19:50:13.818Z,8.03
2018-09-14T19:52:41.992Z,8.90
2018-09-14T19:55:10.680Z,8.63
2018-09-14T19:57:39.111Z,8.83
2018-09-14T20:00:08.158Z,7.87
2018-09-14T20:02:36.483Z,8.20
2018-09-14T20:05:04.728Z,8.73
2018-09-14T20:07:32.990Z,8.47
2018-09-14T20:10:01.238Z,10.03
2018-09-14T20:12:29.564Z,9.27
2018-09-14T20:14:57.834Z,8.90
2018-09-14T20:17:25.993Z,9.60
2018-09-14T20:19:54.193Z,10.07
2018-09-14T20:22:22.402Z,10.20
2018-09-14T20:24:50.704Z,8.97
2018-09-14T20:27:18.990Z,8.73
2018-09-14T20:29:47.296Z,9.10
2018-09-14T20:32:15.509Z,8.63
2018-09-14T20:34:43.837Z,9.33
2018-09-14T20:37:12.127Z,8.07
2018-09-14T20:39:40.527Z,8.40
2018-09-14T20:42:08.828Z,8.17
2018-09-14T20:44:37.388Z,8.43
2018-09-14T20:47:06.047Z,8.03
2018-09-14T20:49:34.740Z,8.67
2018-09-14T20:52:03.642Z,8.27
2018-09-14T20:54:32.862Z,8.87
2018-09-14T20:57:01.415Z,9.03
2018-09-14T20:59:30.001Z,8.93
2018-09-14T21:01:58.292Z,10.07
2018-09-14T21:04:26.639Z,9.40
2018-09-14T21:06:54.937Z,8.80
2018-09-14T21:09:23.229Z,9.97
2018-09-14T21:11:51.650Z,9.43
2018-09-14T21:14:21.018Z,8.10
2018-09-14T21:16:49.402Z,7.80
2018-09-14T21:19:17.806Z,7.80
2018-09-14T21:21:46.116Z,8.63
2018-09-14T21:24:14.672Z,9.33
2018-09-14T21:26:43.207Z,8.90
2018-09-14T21:29:11.917Z,8.20
2018-09-14T21:31:40.284Z,8.73
2018-09-14T21:34:08.521Z,9.23
2018-09-14T21:36:36.953Z,10.70
2018-09-14T21:39:07.392Z,11.77
2018-09-14T21:41:35.656Z,11.40
2018-09-14T21:44:04.102Z,11.13
2018-09-14T21:46:32.405Z,10.97
2018-09-14T21:49:00.710Z,11.27
2018-09-14T21:51:29.237Z,11.10
2018-09-14T21:53:57.496Z,10.80
2018-09-14T21:56:25.740Z,10.33
2018-09-14T21:58:54.079Z,10.23
2018-09-14T22:01:29.543Z,9.23
2018-09-14T22:03:59.134Z,10.20
2018-09-14T22:06:27.437Z,10.43
2018-09-14T22:08:56.212Z,10.20
2018-09-14T22:11:24.419Z,10.57
2018-09-14T22:13:52.621Z,9.80
2018-09-14T22:16:21.048Z,9.17
2018-09-14T22:18:49.261Z,10.20
2018-09-14T22:21:18.104Z,9.90
2018-09-14T22:23:46.261Z,8.93
2018-09-14T22:26:14.429Z,8.80
2018-09-14T22:28:42.680Z,9.43
2018-09-14T22:31:10.919Z,10.13
2018-09-14T22:33:39.240Z,9.30
2018-09-14T22:36:07.523Z,9.63
2018-09-14T22:38:36.194Z,10.27
2018-09-14T22:41:04.554Z,10.23
2018-09-14T22:43:32.869Z,10.07
2018-09-14T22:46:01.485Z,10.90
2018-09-14T22:48:29.727Z,10.13
2018-09-14T22:50:58.008Z,10.93
2018-09-14T22:53:26.241Z,10.90
2018-09-14T22:55:54.573Z,11.30
2018-09-14T22:58:22.837Z,11.10
2018-09-14T23:00:56.585Z,10.33
2018-09-14T23:03:24.898Z,10.67
2018-09-14T23:05:53.222Z,11.63
2018-09-14T23:08:21.573Z,11.00
2018-09-14T23:10:49.879Z,12.07
2018-09-14T23:13:18.272Z,11.03
2018-09-14T23:16:06.119Z,12.10
2018-09-14T23:18:34.281Z,12.23
2018-09-14T23:21:02.527Z,12.80
2018-09-14T23:23:30.801Z,11.40
2018-09-14T23:26:02.461Z,10.30
2018-09-14T23:28:30.737Z,10.17
2018-09-14T23:30:59.867Z,12.47
2018-09-14T23:33:28.171Z,12.90
2018-09-14T23:35:56.446Z,12.47
2018-09-14T23:38:24.749Z,12.20
2018-09-14T23:40:53.107Z,11.83
2018-09-14T23:43:21.414Z,11.60
2018-09-14T23:45:49.652Z,11.70
2018-09-14T23:48:17.912Z,12.30
2018-09-14T23:50:46.149Z,11.37
2018-09-14T23:53:14.445Z,10.10
2018-09-14T23:55:42.764Z,11.57
2018-09-14T23:58:11.208Z,11.60
